createdAt,value
2018-07-19T00:01:27.500Z,12.10
2018-07-19T00:03:54.997Z,11.67
2018-07-19T00:06:22.472Z,12.00
2018-07-19T00:08:50.219Z,12.27
2018-07-19T00:11:17.924Z,12.13
2018-07-19T00:13:45.465Z,12.20
2018-07-19T00:16:13.016Z,12.07
2018-07-19T00:18:40.527Z,11.73
2018-07-19T00:21:08.132Z,12.10
2018-07-19T00:23:35.664Z,12.17
2018-07-19T00:26:03.233Z,12.63
2018-07-19T00:28:30.736Z,12.40
2018-07-19T00:30:58.324Z,12.83
2018-07-19T00:33:25.792Z,12.13
2018-07-19T00:35:53.300Z,12.17
2018-07-19T00:38:20.926Z,12.33
2018-07-19T00:40:48.557Z,12.33
2018-07-19T00:43:16.070Z,12.53
2018-07-19T00:45:43.652Z,12.30
2018-07-19T00:48:11.187Z,13.23
2018-07-19T00:50:38.746Z,12.20
2018-07-19T00:53:06.257Z,12.07
2018-07-19T00:55:34.092Z,11.73
2018-07-19T00:58:01.582Z,12.50
2018-07-19T01:00:29.104Z,12.37
2018-07-19T01:02:56.690Z,11.50
2018-07-19T01:05:24.309Z,12.83
2018-07-19T01:07:51.800Z,13.60
2018-07-19T01:10:19.613Z,12.70
2018-07-19T01:12:48.958Z,13.07
2018-07-19T01:15:16.543Z,11.93
2018-07-19T01:17:44.082Z,12.70
2018-07-19T01:20:11.621Z,13.60
2018-07-19T01:22:39.208Z,12.20
2018-07-19T01:25:07.212Z,12.77
2018-07-19T01:27:34.742Z,13.60
2018-07-19T01:30:02.374Z,13.17
2018-07-19T01:32:29.884Z,13.73
2018-07-19T01:34:57.936Z,13.97
2018-07-19T01:37:25.455Z,13.27
2018-07-19T01:39:53.014Z,14.20
2018-07-19T01:42:29.960Z,13.57
2018-07-19T01:44:57.519Z,13.53
2018-07-19T01:47:25.073Z,14.03
2018-07-19T01:49:52.629Z,13.13
2018-07-19T01:52:20.151Z,14.10
2018-07-19T01:54:47.668Z,13.37
2018-07-19T01:57:16.606Z,13.80
2018-07-19T01:59:44.663Z,13.87
2018-07-19T02:02:12.461Z,13.03
2018-07-19T02:04:39.968Z,12.93
2018-07-19T02:07:07.989Z,13.37
2018-07-19T02:09:35.573Z,13.27
2018-07-19T02:12:03.279Z,13.53
2018-07-19T02:14:31.131Z,13.83
2018-07-19T02:16:58.646Z,14.17
2018-07-19T02:19:26.366Z,13.97
2018-07-19T02:21:53.886Z,14.53
2018-07-19T02:24:21.405Z,14.10
2018-07-19T02:26:48.981Z,13.43
2018-07-19T02:29:16.546Z,13.63
2018-07-19T02:31:44.052Z,13.10
2018-07-19T02:34:11.581Z,13.00
2018-07-19T02:36:39.139Z,13.37
2018-07-19T02:39:08.310Z,13.97
2018-07-19T02:41:36.027Z,13.07
2018-07-19T02:44:03.591Z,13.40
2018-07-19T02:46:31.153Z,13.57
2018-07-19T02:48:58.855Z,13.67
2018-07-19T02:51:26.375Z,14.93
2018-07-19T02:53:53.952Z,13.63
2018-07-19T02:56:21.590Z,14.23
2018-07-19T02:58:49.176Z,13.83
2018-07-19T03:01:16.676Z,14.27
2018-07-19T03:03:44.193Z,14.07
2018-07-19T03:06:11.808Z,13.50
2018-07-19T03:08:39.460Z,13.63
2018-07-19T03:11:07.062Z,14.17
2018-07-19T03:13:34.618Z,14.20
2018-07-19T03:16:02.193Z,13.53
2018-07-19T03:18:29.788Z,14.63
2018-07-19T03:20:57.306Z,14.63
2018-07-19T03:23:24.865Z,13.33
2018-07-19T03:25:52.424Z,13.93
2018-07-19T03:28:19.921Z,13.07
2018-07-19T03:30:47.481Z,12.43
2018-07-19T03:33:15.008Z,14.50
2018-07-19T03:35:42.511Z,13.17
2018-07-19T03:38:10.155Z,13.67
2018-07-19T03:40:37.694Z,13.00
2018-07-19T03:43:05.451Z,13.23
2018-07-19T03:45:32.939Z,12.83
2018-07-19T03:48:00.414Z,12.23
2018-07-19T03:50:27.954Z,12.67
2018-07-19T03:52:55.514Z,12.07
2018-07-19T03:55:22.993Z,13.07
2018-07-19T03:57:50.500Z,12.73
2018-07-19T04:00:18.041Z,13.33
2018-07-19T04:02:45.560Z,12.57
2018-07-19T04:05:13.111Z,12.73
2018-07-19T04:07:40.627Z,13.37
2018-07-19T04:10:08.352Z,13.10
2018-07-19T04:12:35.877Z,12.93
2018-07-19T04:15:03.491Z,12.87
2018-07-19T04:17:31.028Z,12.43
2018-07-19T04:19:58.613Z,12.60
2018-07-19T04:22:26.137Z,12.37
2018-07-19T04:24:53.710Z,12.13
2018-07-19T04:27:22.117Z,12.37
2018-07-19T04:29:49.701Z,11.57
2018-07-19T04:32:17.296Z,11.60
2018-07-19T04:34:44.873Z,11.23
2018-07-19T04:37:12.384Z,11.73
2018-07-19T04:39:39.985Z,12.13
2018-07-19T04:42:07.505Z,11.60
2018-07-19T04:44:35.151Z,11.97
2018-07-19T04:47:02.672Z,11.37
2018-07-19T04:49:31.623Z,10.53
2018-07-19T04:51:59.899Z,10.77
2018-07-19T04:54:27.550Z,10.03
2018-07-19T04:56:55.292Z,10.27
2018-07-19T04:59:22.896Z,10.23
2018-07-19T05:01:50.438Z,9.13
2018-07-19T05:04:17.962Z,9.67
2018-07-19T05:06:45.520Z,9.40
2018-07-19T05:09:13.076Z,9.77
2018-07-19T05:11:40.886Z,9.97
2018-07-19T05:14:08.517Z,9.73
2018-07-19T05:16:36.323Z,9.17
2018-07-19T05:19:04.346Z,8.97
2018-07-19T05:21:31.944Z,9.70
2018-07-19T05:23:59.704Z,9.77
2018-07-19T05:26:27.202Z,9.23
2018-07-19T05:28:54.761Z,9.83
2018-07-19T05:31:22.319Z,9.23
2018-07-19T05:33:49.882Z,9.97
2018-07-19T05:36:17.449Z,10.30
2018-07-19T05:38:45.057Z,9.23
2018-07-19T05:41:12.562Z,8.90
2018-07-19T05:43:40.056Z,9.13
2018-07-19T05:46:07.518Z,10.20
2018-07-19T05:48:35.010Z,10.00
2018-07-19T05:51:02.551Z,9.63
2018-07-19T05:53:30.014Z,11.57
2018-07-19T05:55:57.493Z,8.60
2018-07-19T05:58:25.145Z,9.30
2018-07-19T06:00:52.632Z,9.43
2018-07-19T06:03:20.164Z,11.05
2018-07-19T06:05:47.745Z,9.03
2018-07-19T06:08:15.372Z,9.55
2018-07-19T06:10:42.991Z,9.23
2018-07-19T06:13:10.558Z,9.03
2018-07-19T06:15:38.159Z,9.00
2018-07-19T06:18:05.652Z,9.38
2018-07-19T06:20:33.213Z,9.18
2018-07-19T06:23:00.767Z,9.38
2018-07-19T06:25:28.288Z,9.65
2018-07-19T06:27:55.777Z,8.90
2018-07-19T06:30:23.430Z,9.30
2018-07-19T06:32:50.920Z,9.48
2018-07-19T06:35:18.535Z,9.60
2018-07-19T06:37:46.085Z,9.15
2018-07-19T06:40:14.013Z,9.13
2018-07-19T06:42:41.853Z,8.98
2018-07-19T06:45:09.452Z,8.35
2018-07-19T06:47:37.002Z,9.25
2018-07-19T06:50:04.521Z,9.10
2018-07-19T06:52:32.129Z,8.85
2018-07-19T06:54:59.626Z,8.88
2018-07-19T06:57:27.235Z,8.78
2018-07-19T06:59:54.975Z,8.83
2018-07-19T07:02:22.559Z,9.98
2018-07-19T07:04:50.096Z,8.70
2018-07-19T07:07:17.585Z,9.00
2018-07-19T07:09:45.109Z,9.55
2018-07-19T07:12:12.641Z,8.78
2018-07-19T07:14:40.167Z,8.93
2018-07-19T07:17:07.655Z,8.95
2018-07-19T07:19:35.199Z,9.10
2018-07-19T07:22:02.748Z,10.05
2018-07-19T07:24:30.407Z,8.95
2018-07-19T07:26:57.925Z,8.60
2018-07-19T07:29:25.387Z,9.43
2018-07-19T07:31:52.881Z,8.88
2018-07-19T07:34:20.587Z,9.28
2018-07-19T07:36:48.114Z,8.90
2018-07-19T07:39:15.631Z,8.75
2018-07-19T07:41:43.155Z,8.15
2018-07-19T07:44:10.769Z,8.55
2018-07-19T07:46:38.318Z,8.50
2018-07-19T07:49:06.009Z,8.88
2018-07-19T07:51:33.536Z,8.58
2018-07-19T07:54:01.215Z,9.43
2018-07-19T07:56:28.852Z,9.53
2018-07-19T07:58:56.422Z,9.18
2018-07-19T08:01:24.002Z,9.45
2018-07-19T08:03:51.676Z,9.30
2018-07-19T08:06:19.270Z,9.85
2018-07-19T08:08:46.814Z,9.28
2018-07-19T08:11:14.653Z,8.83
2018-07-19T08:13:42.195Z,8.70
2018-07-19T08:16:09.702Z,8.90
2018-07-19T08:18:37.268Z,9.33
2018-07-19T08:21:04.864Z,9.43
2018-07-19T08:23:32.339Z,8.88
2018-07-19T08:25:59.980Z,8.35
2018-07-19T08:28:27.481Z,8.35
2018-07-19T08:30:55.220Z,8.93
2018-07-19T08:33:22.816Z,8.13
2018-07-19T08:35:50.447Z,8.40
2018-07-19T08:38:18.169Z,8.15
2018-07-19T08:40:45.693Z,8.60
2018-07-19T08:43:13.393Z,8.30
2018-07-19T08:45:41.018Z,8.38
2018-07-19T08:48:08.565Z,8.60
2018-07-19T08:50:36.052Z,8.05
2018-07-19T08:53:03.591Z,8.40
2018-07-19T08:55:31.127Z,8.60
2018-07-19T08:57:58.630Z,7.37
2018-07-19T09:00:26.116Z,8.33
2018-07-19T09:02:53.637Z,8.63
2018-07-19T09:05:21.163Z,8.63
2018-07-19T09:07:48.737Z,8.28
2018-07-19T09:10:16.691Z,8.83
2018-07-19T09:12:44.258Z,8.78
2018-07-19T09:15:11.752Z,8.20
2018-07-19T09:17:39.399Z,8.48
2018-07-19T09:20:06.923Z,7.92
2018-07-19T09:22:34.496Z,7.87
2018-07-19T09:25:02.046Z,8.20
2018-07-19T09:27:29.611Z,8.00
2018-07-19T09:29:57.193Z,8.03
2018-07-19T09:32:24.742Z,9.65
2018-07-19T09:34:52.374Z,7.95
2018-07-19T09:37:19.907Z,7.87
2018-07-19T09:39:47.420Z,8.58
2018-07-19T09:42:14.909Z,9.10
2018-07-19T09:44:42.474Z,9.10
2018-07-19T09:47:10.037Z,8.90
2018-07-19T09:49:37.576Z,9.28
2018-07-19T09:52:05.212Z,9.13
2018-07-19T09:54:38.208Z,9.68
2018-07-19T09:57:06.065Z,8.85
2018-07-19T09:59:33.737Z,9.90
2018-07-19T10:02:01.273Z,8.70
2018-07-19T10:04:28.828Z,9.93
2018-07-19T10:06:56.364Z,8.93
2018-07-19T10:09:23.893Z,10.35
2018-07-19T10:11:51.529Z,9.68
2018-07-19T10:14:19.002Z,9.35
2018-07-19T10:16:46.517Z,9.60
2018-07-19T10:19:14.021Z,8.75
2018-07-19T10:21:41.509Z,9.23
2018-07-19T10:24:09.071Z,8.68
2018-07-19T10:26:36.763Z,8.98
2018-07-19T10:29:04.251Z,11.25
2018-07-19T10:31:31.763Z,8.85
2018-07-19T10:33:59.455Z,9.08
2018-07-19T10:36:27.001Z,8.78
2018-07-19T10:38:54.463Z,8.58
2018-07-19T10:41:22.133Z,8.93
2018-07-19T10:43:49.610Z,9.00
2018-07-19T10:46:17.156Z,8.45
2018-07-19T10:48:44.823Z,8.80
2018-07-19T10:51:12.294Z,7.95
2018-07-19T10:53:39.857Z,8.00
2018-07-19T10:56:07.441Z,7.97
2018-07-19T10:58:34.978Z,7.67
2018-07-19T11:01:02.636Z,8.10
2018-07-19T11:03:30.430Z,7.72
2018-07-19T11:05:58.175Z,7.40
2018-07-19T11:08:25.734Z,7.58
2018-07-19T11:10:53.520Z,7.60
2018-07-19T11:13:20.948Z,7.08
2018-07-19T11:15:48.683Z,7.10
2018-07-19T11:18:16.470Z,6.80
2018-07-19T11:20:44.038Z,5.97
2018-07-19T11:23:11.508Z,6.78
2018-07-19T11:25:38.987Z,6.20
2018-07-19T11:28:06.492Z,6.37
2018-07-19T11:30:34.036Z,7.47
2018-07-19T11:33:01.539Z,6.42
2018-07-19T11:35:29.060Z,6.08
2018-07-19T11:37:56.560Z,6.40
2018-07-19T11:40:24.070Z,5.97
2018-07-19T11:42:51.561Z,6.15
2018-07-19T11:45:18.992Z,6.53
2018-07-19T11:47:46.583Z,6.37
2018-07-19T11:50:14.162Z,6.20
2018-07-19T11:52:41.684Z,5.92
2018-07-19T11:55:09.244Z,6.20
2018-07-19T11:57:36.714Z,6.33
2018-07-19T12:00:04.767Z,5.65
2018-07-19T12:02:32.308Z,6.10
2018-07-19T12:04:59.832Z,6.20
2018-07-19T12:07:27.296Z,6.28
2018-07-19T12:09:54.821Z,6.40
2018-07-19T12:12:22.329Z,6.33
2018-07-19T12:14:49.891Z,6.67
2018-07-19T12:17:17.350Z,6.87
2018-07-19T12:19:44.932Z,7.12
2018-07-19T12:22:12.397Z,7.00
2018-07-19T12:24:40.285Z,7.17
2018-07-19T12:27:07.729Z,6.33
2018-07-19T12:29:35.263Z,6.40
2018-07-19T12:32:02.813Z,6.97
2018-07-19T12:34:30.341Z,6.92
2018-07-19T12:36:57.948Z,7.25
2018-07-19T12:39:25.461Z,7.92
2018-07-19T12:41:52.949Z,7.33
2018-07-19T12:44:20.545Z,7.67
2018-07-19T12:46:48.174Z,9.03
2018-07-19T12:49:15.868Z,7.00
2018-07-19T12:51:43.406Z,7.62
2018-07-19T12:54:10.922Z,7.22
2018-07-19T12:56:38.403Z,7.25
2018-07-19T12:59:05.948Z,7.00
2018-07-19T13:01:33.457Z,7.83
2018-07-19T13:04:00.972Z,7.50
2018-07-19T13:06:28.429Z,7.22
2018-07-19T13:08:55.976Z,7.30
2018-07-19T13:11:23.526Z,6.92
2018-07-19T13:13:51.068Z,7.10
2018-07-19T13:16:18.990Z,7.42
2018-07-19T13:18:46.592Z,7.25
2018-07-19T13:21:14.202Z,7.30
2018-07-19T13:23:41.727Z,7.45
2018-07-19T13:26:09.232Z,8.18
2018-07-19T13:28:36.782Z,7.22
2018-07-19T13:31:04.325Z,7.00
2018-07-19T13:33:31.813Z,7.78
2018-07-19T13:35:59.323Z,7.83
2018-07-19T13:38:26.911Z,7.75
2018-07-19T13:40:54.368Z,8.03
2018-07-19T13:43:21.832Z,7.90
2018-07-19T13:45:49.354Z,7.40
2018-07-19T13:48:16.860Z,7.53
2018-07-19T13:50:44.376Z,7.90
2018-07-19T13:53:29.682Z,7.90
2018-07-19T13:55:57.180Z,8.88
2018-07-19T13:58:24.801Z,7.70
2018-07-19T14:00:52.345Z,9.63
2018-07-19T14:03:19.874Z,7.72
2018-07-19T14:05:47.508Z,7.65
2018-07-19T14:08:15.015Z,7.97
2018-07-19T14:10:42.519Z,8.35
2018-07-19T14:13:10.074Z,8.10
2018-07-19T14:15:37.613Z,8.18
2018-07-19T14:18:05.148Z,11.10
2018-07-19T14:20:32.655Z,7.53
2018-07-19T14:23:00.188Z,8.35
2018-07-19T14:25:27.714Z,8.03
2018-07-19T14:27:55.272Z,8.20
2018-07-19T14:30:22.818Z,8.28
2018-07-19T14:32:50.353Z,7.97
2018-07-19T14:35:17.959Z,8.88
2018-07-19T14:37:45.522Z,7.80
2018-07-19T14:40:13.022Z,7.85
2018-07-19T14:42:40.664Z,8.25
2018-07-19T14:45:08.401Z,8.30
2018-07-19T14:47:35.890Z,7.80
2018-07-19T14:50:03.452Z,8.48
2018-07-19T14:52:30.932Z,7.55
2018-07-19T14:54:58.396Z,7.17
2018-07-19T14:57:26.014Z,7.90
2018-07-19T14:59:53.628Z,7.58
2018-07-19T15:02:21.251Z,8.48
2018-07-19T15:04:48.844Z,7.87
2018-07-19T15:07:16.760Z,8.45
2018-07-19T15:09:44.296Z,8.00
2018-07-19T15:12:11.870Z,8.45
2018-07-19T15:17:16.770Z,7.65
2018-07-19T15:19:44.187Z,8.18
2018-07-19T15:22:12.503Z,7.80
2018-07-19T15:24:39.951Z,7.65
2018-07-19T15:27:07.375Z,9.38
2018-07-19T15:29:34.919Z,10.05
2018-07-19T15:32:03.273Z,7.37
2018-07-19T15:34:30.671Z,7.95
2018-07-19T15:36:58.191Z,7.72
2018-07-19T15:39:25.636Z,8.15
2018-07-19T15:41:53.047Z,7.90
2018-07-19T15:44:20.480Z,8.13
2018-07-19T15:46:47.947Z,7.95
2018-07-19T15:49:15.607Z,8.20
2018-07-19T15:51:43.051Z,7.40
2018-07-19T15:54:11.374Z,8.00
2018-07-19T15:56:39.784Z,7.97
2018-07-19T15:59:07.511Z,7.83
2018-07-19T16:01:35.002Z,8.30
2018-07-19T16:04:02.374Z,7.35
2018-07-19T16:06:29.762Z,7.30
2018-07-19T16:08:57.431Z,7.85
2018-07-19T16:11:25.911Z,7.72
2018-07-19T16:13:53.549Z,7.85
2018-07-19T16:16:21.009Z,7.35
2018-07-19T16:18:49.038Z,7.37
2018-07-19T16:21:16.491Z,7.75
2018-07-19T16:23:44.991Z,7.42
2018-07-19T16:26:12.428Z,7.00
2018-07-19T16:28:40.125Z,7.45
2018-07-19T16:31:07.722Z,7.10
2018-07-19T16:33:35.329Z,6.87
2018-07-19T16:36:03.379Z,6.85
2018-07-19T16:38:30.868Z,6.62
2018-07-19T16:40:58.410Z,7.33
2018-07-19T16:43:26.407Z,6.75
2018-07-19T16:45:53.916Z,7.05
2018-07-19T16:48:21.906Z,7.05
2018-07-19T16:50:49.379Z,11.83
2018-07-19T16:53:18.275Z,7.08
2018-07-19T16:55:45.692Z,6.65
2018-07-19T16:58:13.115Z,7.08
2018-07-19T17:00:40.787Z,6.72
2018-07-19T17:03:08.195Z,7.65
2018-07-19T17:05:35.591Z,6.47
2018-07-19T17:08:03.611Z,6.40
2018-07-19T17:10:31.007Z,7.17
2018-07-19T17:12:59.000Z,7.00
2018-07-19T17:15:26.678Z,6.60
2018-07-19T17:17:54.159Z,6.28
2018-07-19T17:20:21.578Z,6.58
2018-07-19T17:22:49.035Z,6.53
2018-07-19T17:25:16.599Z,6.50
2018-07-19T17:27:44.375Z,6.33
2018-07-19T17:30:11.802Z,6.22
2018-07-19T17:32:39.199Z,6.67
2018-07-19T17:35:06.983Z,8.65
2018-07-19T17:37:34.919Z,7.22
2018-07-19T17:40:02.419Z,7.70
2018-07-19T17:42:30.349Z,6.65
2018-07-19T17:44:57.863Z,6.72
2018-07-19T17:47:25.479Z,6.90
2018-07-19T17:49:52.864Z,6.70
2018-07-19T17:52:20.333Z,6.60
2018-07-19T17:54:47.729Z,7.42
2018-07-19T17:57:15.325Z,6.42
2018-07-19T17:59:42.858Z,6.10
2018-07-19T18:02:10.471Z,6.75
2018-07-19T18:04:38.563Z,6.85
2018-07-19T18:07:06.008Z,7.00
2018-07-19T18:09:33.636Z,6.85
2018-07-19T18:12:01.151Z,7.15
2018-07-19T18:14:28.772Z,7.67
2018-07-19T18:16:56.171Z,6.22
2018-07-19T18:19:23.742Z,7.28
2018-07-19T18:21:51.168Z,6.87
2018-07-19T18:24:18.615Z,6.92
2018-07-19T18:26:46.019Z,6.72
2018-07-19T18:29:13.542Z,7.60
2018-07-19T18:31:41.261Z,7.47
2018-07-19T18:34:08.667Z,7.70
2018-07-19T18:36:36.223Z,7.07
2018-07-19T18:39:04.021Z,7.20
2018-07-19T18:41:31.429Z,7.50
2018-07-19T18:43:58.870Z,7.40
2018-07-19T18:46:26.280Z,8.20
2018-07-19T18:48:53.659Z,7.63
2018-07-19T18:51:21.120Z,7.37
2018-07-19T18:53:48.535Z,7.67
2018-07-19T18:56:15.955Z,9.77
2018-07-19T18:58:43.387Z,7.37
2018-07-19T19:01:10.857Z,7.17
2018-07-19T19:03:38.214Z,8.60
2018-07-19T19:06:05.956Z,8.90
2018-07-19T19:08:33.387Z,7.60
2018-07-19T19:11:00.786Z,9.27
2018-07-19T19:13:28.358Z,7.37
2018-07-19T19:15:55.760Z,7.23
2018-07-19T19:18:23.257Z,8.13
2018-07-19T19:20:51.386Z,9.47
2018-07-19T19:23:18.994Z,10.57
2018-07-19T19:25:47.696Z,7.53
2018-07-19T19:28:16.120Z,8.67
2018-07-19T19:30:43.722Z,8.07
2018-07-19T19:33:11.207Z,9.87
2018-07-19T19:35:39.630Z,9.43
2018-07-19T19:38:07.023Z,11.43
2018-07-19T19:40:34.455Z,8.43
2018-07-19T19:43:01.992Z,7.83
2018-07-19T19:45:30.077Z,8.60
2018-07-19T19:47:57.620Z,9.43
2018-07-19T19:50:26.221Z,8.57
2018-07-19T19:52:53.612Z,9.60
2018-07-19T19:55:21.059Z,8.87
2018-07-19T19:57:48.503Z,12.03
2018-07-19T20:00:15.955Z,9.13
2018-07-19T20:02:43.459Z,8.03
2018-07-19T20:05:10.836Z,11.70
2018-07-19T20:07:38.232Z,12.60
2018-07-19T20:10:06.115Z,9.43
2018-07-19T20:12:33.567Z,8.23
2018-07-19T20:15:01.096Z,8.60
2018-07-19T20:17:28.521Z,9.60
2018-07-19T20:19:55.931Z,8.03
2018-07-19T20:22:23.690Z,10.87
2018-07-19T20:24:51.841Z,8.23
2018-07-19T20:27:20.551Z,8.93
2018-07-19T20:29:48.339Z,8.70
2018-07-19T20:32:16.060Z,8.20
2018-07-19T20:34:43.460Z,7.80
2018-07-19T20:37:10.852Z,8.10
2018-07-19T20:39:38.276Z,8.27
2018-07-19T20:42:05.670Z,8.93
2018-07-19T20:44:33.055Z,10.63
2018-07-19T20:47:00.479Z,8.53
2018-07-19T20:49:27.891Z,8.50
2018-07-19T20:51:55.296Z,10.43
2018-07-19T20:54:23.242Z,8.37
2018-07-19T20:56:50.858Z,10.27
2018-07-19T20:59:18.242Z,8.40
2018-07-19T21:01:45.659Z,8.77
2018-07-19T21:04:13.050Z,9.30
2018-07-19T21:06:40.696Z,8.93
2018-07-19T21:09:09.915Z,9.00
2018-07-19T21:11:37.482Z,9.23
2018-07-19T21:14:05.207Z,9.17
2018-07-19T21:16:32.999Z,9.43
2018-07-19T21:19:00.419Z,8.67
2018-07-19T21:21:27.999Z,9.63
2018-07-19T21:23:55.631Z,8.90
2018-07-19T21:26:23.049Z,9.37
2018-07-19T21:28:50.649Z,8.37
2018-07-19T21:31:18.070Z,9.07
2018-07-19T21:33:45.711Z,8.30
2018-07-19T21:36:13.103Z,9.00
2018-07-19T21:38:40.731Z,9.03
2018-07-19T21:41:08.139Z,9.13
2018-07-19T21:43:35.700Z,8.37
2018-07-19T21:46:03.104Z,8.27
2018-07-19T21:48:30.763Z,9.17
2018-07-19T21:50:58.150Z,8.37
2018-07-19T21:53:25.823Z,8.70
2018-07-19T21:55:53.251Z,8.80
2018-07-19T21:58:20.659Z,10.67
2018-07-19T22:00:53.425Z,8.80
2018-07-19T22:03:20.807Z,9.97
2018-07-19T22:05:48.179Z,11.33
2018-07-19T22:08:15.772Z,8.57
2018-07-19T22:10:43.187Z,8.97
2018-07-19T22:13:10.719Z,9.23
2018-07-19T22:15:39.518Z,8.93
2018-07-19T22:18:07.024Z,11.17
2018-07-19T22:20:34.542Z,8.60
2018-07-19T22:23:02.638Z,8.70
2018-07-19T22:25:30.037Z,8.77
2018-07-19T22:27:57.471Z,8.60
2018-07-19T22:30:24.891Z,8.80
2018-07-19T22:32:52.759Z,8.47
2018-07-19T22:35:20.159Z,9.07
2018-07-19T22:37:47.592Z,8.90
2018-07-19T22:40:15.118Z,9.07
2018-07-19T22:42:42.662Z,8.57
2018-07-19T22:45:10.380Z,9.40
2018-07-19T22:47:37.761Z,9.17
2018-07-19T22:50:05.275Z,8.53
2018-07-19T22:52:32.694Z,10.03
2018-07-19T22:55:00.747Z,9.00
2018-07-19T22:57:28.138Z,9.27
2018-07-19T22:59:57.287Z,10.77
2018-07-19T23:02:24.666Z,9.93
2018-07-19T23:04:52.233Z,9.27
2018-07-19T23:07:19.635Z,9.20
2018-07-19T23:09:47.014Z,9.27
2018-07-19T23:12:17.136Z,10.20
2018-07-19T23:14:44.603Z,9.30
2018-07-19T23:17:12.365Z,9.30
2018-07-19T23:19:40.490Z,9.93
2018-07-19T23:22:08.737Z,10.30
2018-07-19T23:27:20.338Z,8.93
2018-07-19T23:29:47.848Z,9.50
2018-07-19T23:32:15.454Z,9.00
2018-07-19T23:34:42.937Z,8.80
2018-07-19T23:37:42.939Z,9.83
2018-07-19T23:40:14.783Z,9.60
2018-07-19T23:42:45.543Z,11.07
2018-07-19T23:45:19.171Z,12.10
2018-07-19T23:47:47.487Z,8.97
2018-07-19T23:50:15.275Z,9.67
2018-07-19T23:52:42.793Z,11.73
2018-07-19T23:55:10.831Z,9.13
2018-07-19T23:57:40.439Z,11.57
